KSCF/SCF METAR and TAF weather

Enter ICAO airport designator
Station Type Date Time Source
KSCF METAR 2019/10/23 20:15 UTC NOAA

KSCF 232015Z AUTO 10021KT 10SM CLR 21/10 A3009 RMK A01


Station Type Date Time Source
KSCF Decoded METAR 2019/10/23 20:15 UTC NOAA

South Marsh 268, LA, United States (KSCF) 29-06-57N 091-52-16W
Oct 23, 2019 - 04:15 PM EDT / 2019.10.23 2015 UTC
Wind: from the E (100 degrees) at 24 MPH (21 KT):0
Visibility: 10 mile(s):0
Sky conditions: clear
Temperature: 69 F (21 C)
Dew Point: 50 F (10 C)
Relative Humidity: 49%
Pressure (altimeter): 30.09 in. Hg (1018 hPa)
ob: KSCF 232015Z AUTO 10021KT 10SM CLR 21/10 A3009 RMK A01
cycle: 20

Station Type Date Time Source
KSCF TAF UTC NOAA

Error!

Example: see airport list